createdAt,value
2022-10-16T00:04:03.303Z,14.50
2022-10-16T00:08:16.786Z,14.60
2022-10-16T00:12:26.332Z,14.60
2022-10-16T00:16:38.202Z,14.50
2022-10-16T00:20:47.623Z,14.50
2022-10-16T00:24:57.184Z,14.50
2022-10-16T00:29:07.125Z,14.50
2022-10-16T00:33:18.302Z,14.40
2022-10-16T00:37:28.885Z,14.40
2022-10-16T00:41:38.324Z,14.30
2022-10-16T00:45:47.603Z,14.30
2022-10-16T00:50:02.324Z,14.30
2022-10-16T00:54:14.569Z,14.30
2022-10-16T00:58:24.104Z,14.30
2022-10-16T01:02:33.545Z,14.30
2022-10-16T01:06:51.246Z,14.30
2022-10-16T01:11:04.568Z,14.30
2022-10-16T01:15:22.066Z,14.30
2022-10-16T01:19:56.905Z,14.30
2022-10-16T01:24:20.444Z,14.30
2022-10-16T01:28:37.199Z,14.40
2022-10-16T01:32:52.746Z,14.30
2022-10-16T01:37:08.829Z,14.30
2022-10-16T01:41:22.488Z,14.20
2022-10-16T01:45:35.691Z,14.20
2022-10-16T01:49:49.083Z,14.00
2022-10-16T01:54:02.063Z,13.90
2022-10-16T01:58:13.022Z,13.90
2022-10-16T02:02:30.966Z,13.80
2022-10-16T02:06:40.404Z,13.70
2022-10-16T02:10:49.790Z,13.70
2022-10-16T02:14:59.307Z,13.50
2022-10-16T02:19:11.332Z,13.40
2022-10-16T02:23:27.924Z,13.40
2022-10-16T02:27:43.227Z,13.40
2022-10-16T02:31:57.746Z,13.40
2022-10-16T02:36:09.208Z,13.30
2022-10-16T02:40:21.571Z,13.30
2022-10-16T02:44:33.991Z,13.30
2022-10-16T02:48:43.250Z,13.20
2022-10-16T02:52:54.368Z,13.20
2022-10-16T02:57:03.948Z,13.20
2022-10-16T03:01:13.995Z,13.00
2022-10-16T03:05:24.868Z,12.90
2022-10-16T03:09:35.880Z,12.90
2022-10-16T03:13:45.150Z,12.70
2022-10-16T03:17:54.409Z,12.60
2022-10-16T03:22:03.689Z,12.60
2022-10-16T03:26:14.570Z,12.50
2022-10-16T03:30:23.927Z,12.40
2022-10-16T03:34:33.428Z,12.40
2022-10-16T03:38:42.627Z,12.40
2022-10-16T03:42:56.670Z,12.30
2022-10-16T03:47:05.904Z,12.10
2022-10-16T03:51:14.986Z,12.00
2022-10-16T03:55:24.264Z,12.10
2022-10-16T03:59:35.250Z,12.20
2022-10-16T04:03:44.729Z,12.20
2022-10-16T04:07:53.967Z,12.20
2022-10-16T04:12:04.368Z,12.20
2022-10-16T04:16:15.388Z,12.10
2022-10-16T04:20:24.853Z,12.10
2022-10-16T04:24:34.111Z,12.10
2022-10-16T04:28:43.327Z,12.10
2022-10-16T04:32:54.551Z,12.10
2022-10-16T04:37:04.764Z,12.10
2022-10-16T04:41:13.985Z,12.20
2022-10-16T04:45:23.245Z,12.20
2022-10-16T04:49:33.865Z,12.30
2022-10-16T04:53:43.148Z,12.30
2022-10-16T04:57:52.384Z,12.20
2022-10-16T05:02:01.945Z,12.20
2022-10-16T05:06:12.648Z,12.30
2022-10-16T05:10:22.185Z,12.30
2022-10-16T05:14:31.649Z,12.40
2022-10-16T05:18:40.810Z,12.40
2022-10-16T05:22:51.570Z,12.30
2022-10-16T05:27:00.710Z,12.30
2022-10-16T05:31:11.008Z,12.30
2022-10-16T05:35:20.953Z,12.30
2022-10-16T05:39:31.669Z,12.30
2022-10-16T05:43:41.032Z,12.30
2022-10-16T05:47:50.110Z,12.40
2022-10-16T05:51:59.349Z,12.40
2022-10-16T05:56:12.968Z,12.50
2022-10-16T06:00:22.190Z,12.50
2022-10-16T06:04:31.317Z,12.60
2022-10-16T06:08:40.610Z,12.60
2022-10-16T06:12:51.470Z,12.70
2022-10-16T06:17:00.627Z,12.70
2022-10-16T06:21:14.629Z,12.70
2022-10-16T06:25:24.001Z,12.80
2022-10-16T06:29:35.589Z,12.80
2022-10-16T06:33:46.950Z,12.80
2022-10-16T06:37:56.233Z,12.80
2022-10-16T06:42:05.491Z,12.90
2022-10-16T06:46:20.211Z,12.90
2022-10-16T06:50:29.847Z,12.90
2022-10-16T06:54:42.336Z,13.00
2022-10-16T06:58:52.550Z,13.00
2022-10-16T07:03:03.410Z,13.10
2022-10-16T07:07:13.289Z,13.20
2022-10-16T07:11:24.551Z,13.20
2022-10-16T07:15:34.151Z,13.30
2022-10-16T07:19:44.872Z,13.50
2022-10-16T07:23:54.415Z,13.50
2022-10-16T07:28:03.830Z,13.60
2022-10-16T07:32:13.228Z,13.70
2022-10-16T07:36:24.314Z,13.80
2022-10-16T07:40:33.550Z,13.90
2022-10-16T07:44:44.430Z,14.00
2022-10-16T07:48:53.953Z,14.10
2022-10-16T07:53:04.728Z,14.20
2022-10-16T07:57:20.069Z,14.30
2022-10-16T08:01:29.420Z,14.40
2022-10-16T08:05:39.069Z,14.40
2022-10-16T08:09:53.107Z,14.50
2022-10-16T08:14:03.790Z,14.50
2022-10-16T08:18:13.689Z,14.60
2022-10-16T08:22:22.974Z,14.60
2022-10-16T08:26:33.892Z,14.60
2022-10-16T08:30:43.069Z,14.60
2022-10-16T08:34:52.527Z,14.60
2022-10-16T08:39:15.967Z,14.60
2022-10-16T08:43:38.790Z,14.70
2022-10-16T08:47:56.829Z,14.70
2022-10-16T08:52:06.189Z,14.80
2022-10-16T08:56:15.208Z,14.80
2022-10-16T09:00:28.600Z,14.90
2022-10-16T09:05:13.372Z,14.90
2022-10-16T09:09:53.570Z,15.20
2022-10-16T09:14:13.130Z,15.40
2022-10-16T09:18:55.667Z,15.60
2022-10-16T09:23:20.118Z,15.70
2022-10-16T09:27:29.734Z,15.70
2022-10-16T09:31:45.870Z,15.80
2022-10-16T09:36:00.889Z,15.80
2022-10-16T09:40:15.209Z,15.70
2022-10-16T09:44:28.093Z,15.60
2022-10-16T09:48:42.290Z,15.50
2022-10-16T09:52:53.050Z,15.50
2022-10-16T09:57:16.549Z,15.50
2022-10-16T10:01:32.871Z,15.50
2022-10-16T10:05:43.490Z,15.50
2022-10-16T10:10:03.409Z,15.50
2022-10-16T10:14:38.429Z,15.50
2022-10-16T10:19:01.382Z,15.50
2022-10-16T10:23:25.069Z,15.50
2022-10-16T10:27:46.830Z,15.60
2022-10-16T10:32:04.171Z,15.60
2022-10-16T10:36:28.669Z,15.70
2022-10-16T10:40:47.089Z,15.70
2022-10-16T10:45:28.731Z,15.80
2022-10-16T10:49:49.991Z,15.90
2022-10-16T10:54:16.148Z,16.00
2022-10-16T10:58:45.109Z,16.10
2022-10-16T11:03:06.329Z,16.10
2022-10-16T11:07:21.432Z,16.10
2022-10-16T11:11:39.389Z,16.20
2022-10-16T11:15:51.633Z,16.20
2022-10-16T11:20:14.634Z,16.20
2022-10-16T11:24:28.128Z,16.30
2022-10-16T11:28:47.438Z,16.30
2022-10-16T11:33:13.351Z,16.40
2022-10-16T11:37:43.129Z,16.40
2022-10-16T11:41:56.029Z,16.50
2022-10-16T11:46:17.141Z,16.60
2022-10-16T11:50:31.989Z,16.70
2022-10-16T11:54:48.088Z,16.70
2022-10-16T11:59:02.248Z,16.70
2022-10-16T12:03:20.631Z,16.70
2022-10-16T12:07:38.008Z,16.70
2022-10-16T12:11:48.849Z,16.70
2022-10-16T12:16:24.791Z,16.80
2022-10-16T12:20:37.551Z,16.80
2022-10-16T12:24:46.830Z,16.90
2022-10-16T12:28:58.154Z,16.90
2022-10-16T12:33:10.670Z,16.90
2022-10-16T12:37:27.650Z,17.00
2022-10-16T12:41:41.110Z,17.00
2022-10-16T12:46:03.628Z,17.10
2022-10-16T12:50:28.748Z,17.00
2022-10-16T12:54:44.133Z,17.00
2022-10-16T12:59:07.229Z,17.00
2022-10-16T13:03:44.529Z,17.10
2022-10-16T13:08:08.051Z,17.00
2022-10-16T13:12:32.669Z,17.00
2022-10-16T13:17:02.067Z,17.00
2022-10-16T13:21:29.210Z,17.00
2022-10-16T13:25:51.208Z,17.10
2022-10-16T13:30:19.889Z,17.20
2022-10-16T13:34:35.529Z,17.30
2022-10-16T13:38:49.208Z,17.40
2022-10-16T13:42:58.788Z,17.40
2022-10-16T13:47:07.750Z,17.40
2022-10-16T13:51:19.296Z,17.40
2022-10-16T13:55:30.069Z,17.50
2022-10-16T13:59:41.628Z,17.70
2022-10-16T14:03:54.712Z,17.80
2022-10-16T14:08:07.589Z,17.80
2022-10-16T14:12:21.035Z,17.70
2022-10-16T14:16:55.868Z,17.60
2022-10-16T14:21:10.390Z,17.60
2022-10-16T14:25:28.968Z,17.60
2022-10-16T14:29:41.852Z,17.50
2022-10-16T14:34:07.069Z,17.50
2022-10-16T14:38:26.829Z,17.40
2022-10-16T14:42:49.349Z,17.30
2022-10-16T14:47:28.330Z,17.30
2022-10-16T14:51:38.490Z,17.40
2022-10-16T14:55:48.288Z,17.40
2022-10-16T15:00:12.850Z,17.40
2022-10-16T15:04:27.452Z,17.40
2022-10-16T15:08:37.808Z,17.50
2022-10-16T15:12:47.209Z,17.50
2022-10-16T15:16:56.510Z,17.60
2022-10-16T15:21:29.809Z,17.50
2022-10-16T15:25:44.189Z,17.50
2022-10-16T15:29:53.509Z,17.50
2022-10-16T15:34:05.810Z,17.50
2022-10-16T15:38:51.731Z,17.50
2022-10-16T15:47:44.976Z,17.60
2022-10-16T15:51:56.291Z,17.60
2022-10-16T15:56:06.188Z,17.60
2022-10-16T16:00:37.468Z,17.60
2022-10-16T16:05:01.769Z,17.60
2022-10-16T16:09:21.309Z,17.50
2022-10-16T16:13:31.649Z,17.50
2022-10-16T16:18:08.272Z,17.60
2022-10-16T16:22:20.475Z,17.60
2022-10-16T16:26:55.335Z,17.60
2022-10-16T16:31:04.633Z,17.60
2022-10-16T16:35:16.209Z,17.60
2022-10-16T16:39:31.009Z,17.50
2022-10-16T16:43:40.749Z,17.50
2022-10-16T16:48:04.949Z,17.50
2022-10-16T16:52:16.249Z,17.50
2022-10-16T16:56:53.907Z,17.50
2022-10-16T17:17:12.571Z,17.40
2022-10-16T17:22:06.486Z,17.40
2022-10-16T17:26:17.739Z,17.50
2022-10-16T17:35:38.285Z,17.50
2022-10-16T17:39:51.984Z,17.50
2022-10-16T17:44:02.984Z,17.50
2022-10-16T17:48:13.068Z,17.50
2022-10-16T17:52:22.624Z,17.50
2022-10-16T17:56:33.968Z,17.50
2022-10-16T18:00:43.266Z,17.40
2022-10-16T18:04:54.426Z,17.50
2022-10-16T18:09:05.245Z,17.40
2022-10-16T18:13:30.145Z,17.40
2022-10-16T18:17:40.065Z,17.40
2022-10-16T18:21:49.835Z,17.40
2022-10-16T18:25:59.173Z,17.40
2022-10-16T18:30:10.926Z,17.40
2022-10-16T18:34:20.666Z,17.30
2022-10-16T18:38:30.375Z,17.30
2022-10-16T18:42:39.667Z,17.20
2022-10-16T18:46:52.864Z,17.20
2022-10-16T18:51:10.823Z,17.20
2022-10-16T18:55:20.684Z,17.20
2022-10-16T18:59:30.063Z,17.20
2022-10-16T19:03:42.344Z,17.10
2022-10-16T19:07:51.446Z,17.10
2022-10-16T19:12:00.806Z,17.10
2022-10-16T19:16:20.346Z,17.00
2022-10-16T19:20:32.206Z,17.00
2022-10-16T19:24:41.527Z,16.90
2022-10-16T19:28:59.138Z,16.90
2022-10-16T21:33:00.586Z,16.40
2022-10-16T22:06:29.104Z,16.80
2022-10-16T22:11:04.675Z,16.80
2022-10-16T22:20:26.380Z,16.60
2022-10-16T22:24:40.901Z,16.60
2022-10-16T22:28:50.272Z,16.60
2022-10-16T22:32:59.505Z,16.70
2022-10-16T22:37:08.827Z,16.80
2022-10-16T22:41:31.186Z,16.70
2022-10-16T22:45:40.650Z,16.70
2022-10-16T22:49:51.444Z,16.70
2022-10-16T22:54:01.044Z,16.80
2022-10-16T22:58:12.144Z,16.70
2022-10-16T23:02:24.633Z,16.70
2022-10-16T23:06:34.447Z,16.60
2022-10-16T23:10:45.709Z,16.60
2022-10-16T23:14:57.048Z,16.60
2022-10-16T23:24:04.327Z,16.50
2022-10-16T23:28:37.790Z,16.40
2022-10-16T23:37:31.626Z,16.40
2022-10-16T23:41:41.910Z,16.40
2022-10-16T23:45:55.849Z,16.40
2022-10-16T23:55:25.917Z,16.60
